EST,Max TemperatureF,Mean TemperatureF,Min TemperatureF,Max Dew PointF,MeanDew PointF,Min DewpointF,Max Humidity, Mean Humidity, Min Humidity, Max Sea Level PressureIn, Mean Sea Level PressureIn, Min Sea Level PressureIn, Max VisibilityMiles, Mean VisibilityMiles, Min VisibilityMiles, Max Wind SpeedMPH, Mean Wind SpeedMPH, Max Gust SpeedMPH,PrecipitationIn, CloudCover, Events, WindDirDegrees
2013-1-1,26,18,10,18,10,5,85,67,53,30.16,30.07,29.99,10,10,10,13,8,,0.00,6,,298
2013-1-2,24,19,14,18,13,8,86,75,68,30.19,30.12,30.03,10,10,8,13,8,,0.00,7,Snow,260
2013-1-3,28,22,15,25,16,5,93,77,62,30.16,30.10,30.03,10,7,3,16,8,22,0.00,7,Snow,240
2013-1-4,30,27,23,22,19,17,81,73,61,30.18,30.08,29.99,10,10,9,20,13,30,0.00,4,,249
2013-1-5,30,22,15,29,22,14,100,87,69,30.28,30.13,29.99,9,4,0,13,5,,0.02,5,Fog-Snow,209
2013-1-6,34,32,30,32,29,25,100,87,75,30.26,29.98,29.87,10,5,1,15,9,22,0.02,8,Rain-Snow,244
2013-1-7,34,31,28,24,22,20,85,73,60,30.37,30.26,30.15,10,10,8,17,7,25,0.00,5,,209
2013-1-8,35,30,24,25,22,20,85,75,64,30.25,30.20,30.16,9,6,3,8,6,,0.00,5,,192
2013-1-9,44,36,28,31,26,22,88,68,43,30.43,30.17,30.03,10,8,4,24,12,39,0.00,2,Rain,246
2013-1-10,39,30,21,32,25,18,92,79,58,30.59,30.46,30.20,10,9,6,12,4,20,0.05,5,Rain,136
2013-1-11,54,44,33,49,40,31,100,94,77,30.16,29.89,29.75,10,5,0,15,9,20,0.61,8,Fog-Rain,156
2013-1-12,57,50,44,48,45,43,100,88,65,29.94,29.88,29.83,10,8,1,12,6,16,0.00,6,Fog,202
2013-1-13,44,36,28,38,34,25,100,93,76,30.03,29.87,29.76,10,7,2,18,9,31,0.58,8,Rain-Snow,313
2013-1-14,28,24,18,25,16,12,86,75,63,30.43,30.30,30.00,10,10,9,24,16,32,0.00,7,Snow,277
2013-1-15,28,22,15,18,14,11,91,72,51,30.44,30.35,30.16,10,10,5,7,1,,0.00,4,,220
2013-1-16,37,28,19,27,17,10,93,66,34,30.10,29.93,29.76,10,9,6,21,6,30,0.00,4,Snow,237
2013-1-17,33,25,16,27,17,2,89,67,47,30.31,30.14,29.96,10,10,9,22,13,30,0.00,6,Snow,306
2013-1-18,34,23,12,20,13,5,86,67,47,30.43,30.26,29.96,10,10,7,18,8,33,0.00,5,,213
2013-1-19,45,40,34,33,27,21,68,59,52,29.94,29.80,29.53,10,10,10,24,13,33,0.00,4,,219
2013-1-20,42,28,14,24,7,2,73,57,39,30.18,29.99,29.54,10,9,2,43,27,54,0.00,7,Snow,282
2013-1-21,14,8,1,11,3,-7,88,72,56,30.14,30.00,29.91,10,5,0,21,10,29,0.00,6,Fog-Snow,283
2013-1-22,8,3,-2,0,-5,-15,85,68,50,30.29,30.20,30.04,10,7,2,20,12,29,0.00,6,Snow,284
2013-1-23,15,8,1,9,5,-4,85,77,59,30.29,30.12,30.02,10,5,1,12,6,,0.00,7,Snow,236
2013-1-24,16,11,6,9,4,-3,92,76,45,30.59,30.36,30.06,10,7,2,14,8,21,0.00,5,Snow,329
2013-1-25,19,14,10,16,11,2,93,83,67,30.50,30.15,29.97,10,4,0,8,5,,0.02,8,Fog-Snow,148
2013-1-26,25,18,12,16,14,9,93,80,55,30.46,30.22,30.00,10,7,4,12,4,,0.00,7,Snow,291
2013-1-27,26,16,7,25,17,4,94,83,60,30.48,30.32,30.10,10,5,0,14,6,20,0.16,6,Fog-Rain-Snow,147
2013-1-28,53,40,28,43,34,27,100,85,50,30.13,29.95,29.83,10,4,0,20,10,25,0.09,8,Fog-Rain-Snow,204
2013-1-29,69,53,37,54,43,30,100,81,50,30.00,29.77,29.48,9,3,0,17,6,25,0.96,8,Fog-Rain-Thunderstorm,168
2013-1-30,68,52,33,55,47,32,100,89,52,29.42,29.22,29.10,10,6,0,31,12,40,0.53,8,Fog-Rain-Snow,216
2013-1-31,37,26,15,22,15,8,88,74,45,29.87,29.60,29.25,10,4,0,37,22,45,0.00,8,Fog-Snow,274